createdAt,value
2016-12-11T00:00:23.292Z,974.15
2016-12-11T00:01:31.979Z,974.14
2016-12-11T00:02:40.670Z,974.12
2016-12-11T00:03:49.359Z,974.16
2016-12-11T00:04:58.046Z,974.13
2016-12-11T00:06:06.741Z,974.07
2016-12-11T00:07:15.428Z,974.07
2016-12-11T00:08:24.118Z,974.04
2016-12-11T00:09:33.134Z,974.07
2016-12-11T00:10:41.826Z,974.03
2016-12-11T00:11:50.514Z,974.01
2016-12-11T00:12:59.197Z,974.01
2016-12-11T00:14:07.893Z,973.99
2016-12-11T00:15:16.589Z,974
2016-12-11T00:16:25.281Z,974.02
2016-12-11T00:17:33.973Z,974.01
2016-12-11T00:18:42.667Z,973.99
2016-12-11T00:19:51.361Z,973.93
2016-12-11T00:21:00.053Z,973.88
2016-12-11T00:22:08.746Z,973.92
2016-12-11T00:23:17.440Z,973.91
2016-12-11T00:24:26.132Z,973.89
2016-12-11T00:25:34.816Z,973.86
2016-12-11T00:26:43.516Z,973.83
2016-12-11T00:27:52.204Z,973.86
2016-12-11T00:29:00.896Z,973.81
2016-12-11T00:30:09.583Z,973.79
2016-12-11T00:31:18.276Z,973.78
2016-12-11T00:32:26.964Z,973.79
2016-12-11T00:33:35.653Z,973.8
2016-12-11T00:34:44.350Z,973.8
2016-12-11T00:35:53.048Z,973.76
2016-12-11T00:37:02.056Z,973.77
2016-12-11T00:38:10.744Z,973.71
2016-12-11T00:39:19.436Z,973.72
2016-12-11T00:40:28.125Z,973.72
2016-12-11T00:41:37.132Z,973.74
2016-12-11T00:42:45.846Z,973.71
2016-12-11T00:43:54.533Z,973.73
2016-12-11T00:45:03.217Z,973.7
2016-12-11T00:46:11.908Z,973.71
2016-12-11T00:47:20.597Z,973.71
2016-12-11T00:48:29.287Z,973.7
2016-12-11T00:49:37.974Z,973.7
2016-12-11T00:50:46.663Z,973.69
2016-12-11T00:51:55.355Z,973.68
2016-12-11T00:53:04.040Z,973.65
2016-12-11T00:54:12.729Z,973.67
2016-12-11T00:55:21.418Z,973.66
2016-12-11T00:56:30.114Z,973.68
2016-12-11T00:57:38.807Z,973.66
2016-12-11T00:58:47.500Z,973.65
2016-12-11T00:59:56.184Z,973.65
2016-12-11T01:01:04.911Z,973.61
2016-12-11T01:02:13.600Z,973.61
2016-12-11T01:03:22.294Z,973.61
2016-12-11T01:04:30.992Z,973.59
2016-12-11T01:05:39.681Z,973.67
2016-12-11T01:06:48.374Z,973.64
2016-12-11T01:07:57.068Z,973.68
2016-12-11T01:09:05.757Z,973.68
2016-12-11T01:10:14.442Z,973.64
2016-12-11T01:11:23.132Z,973.63
2016-12-11T01:12:31.819Z,973.59
2016-12-11T01:14:54.359Z,973.58
2016-12-11T01:16:03.048Z,973.59
2016-12-11T01:17:11.740Z,973.59
2016-12-11T01:18:20.429Z,973.51
2016-12-11T01:19:29.223Z,973.5
2016-12-11T01:20:37.912Z,973.53
2016-12-11T01:21:46.603Z,973.5
2016-12-11T01:22:55.293Z,973.49
2016-12-11T01:24:03.991Z,973.49
2016-12-11T01:25:12.733Z,973.52
2016-12-11T01:26:21.464Z,973.55
2016-12-11T01:27:30.508Z,973.46
2016-12-11T01:28:39.226Z,973.44
2016-12-11T01:29:47.920Z,973.5
2016-12-11T01:30:56.665Z,973.51
2016-12-11T01:32:05.400Z,973.52
2016-12-11T01:33:14.090Z,973.53
2016-12-11T01:34:22.783Z,973.47
2016-12-11T01:35:31.786Z,973.47
2016-12-11T01:36:40.525Z,973.48
2016-12-11T01:37:49.245Z,973.45
2016-12-11T01:38:57.939Z,973.46
2016-12-11T01:40:06.628Z,973.43
2016-12-11T01:41:15.316Z,973.43
2016-12-11T01:42:24.093Z,973.43
2016-12-11T01:43:32.788Z,973.45
2016-12-11T01:44:41.475Z,973.41
2016-12-11T01:45:50.162Z,973.39
2016-12-11T01:46:58.851Z,973.43
2016-12-11T01:48:07.642Z,973.43
2016-12-11T01:49:16.335Z,973.4
2016-12-11T01:50:25.025Z,973.39
2016-12-11T01:51:34.048Z,973.38
2016-12-11T01:52:42.734Z,973.35
2016-12-11T01:53:51.473Z,973.33
2016-12-11T01:55:00.171Z,973.29
2016-12-11T01:56:08.866Z,973.25
2016-12-11T01:57:17.550Z,973.25
2016-12-11T01:58:26.244Z,973.26
2016-12-11T01:59:34.984Z,973.23
2016-12-11T02:00:43.670Z,973.26
2016-12-11T02:01:52.361Z,973.19
2016-12-11T02:03:01.076Z,973.2
2016-12-11T02:04:09.790Z,973.22
2016-12-11T02:05:18.532Z,973.21
2016-12-11T02:06:27.226Z,973.22
2016-12-11T02:07:35.917Z,973.23
2016-12-11T02:08:44.631Z,973.25
2016-12-11T02:09:53.317Z,973.29
2016-12-11T02:11:02.062Z,973.26
2016-12-11T02:12:10.752Z,973.27
2016-12-11T02:13:19.444Z,973.29
2016-12-11T02:14:28.137Z,973.24
2016-12-11T02:15:36.826Z,973.26
2016-12-11T02:16:45.560Z,973.28
2016-12-11T02:17:54.246Z,973.23
2016-12-11T02:19:02.937Z,973.23
2016-12-11T02:20:11.629Z,973.26
2016-12-11T02:21:20.326Z,973.25
2016-12-11T02:22:29.068Z,973.25
2016-12-11T02:23:37.755Z,973.26
2016-12-11T02:24:46.443Z,973.19
2016-12-11T02:25:55.130Z,973.23
2016-12-11T02:27:03.831Z,973.2
2016-12-11T02:28:12.575Z,973.18
2016-12-11T02:29:21.263Z,973.19
2016-12-11T02:30:29.951Z,973.17
2016-12-11T02:31:38.639Z,973.17
2016-12-11T02:32:47.324Z,973.2
2016-12-11T02:33:56.065Z,973.18
2016-12-11T02:35:05.071Z,973.15
2016-12-11T02:36:13.759Z,973.17
2016-12-11T02:37:22.477Z,973.17
2016-12-11T02:38:31.175Z,973.2
2016-12-11T02:39:39.922Z,973.15
2016-12-11T02:40:48.605Z,973.17
2016-12-11T02:41:57.294Z,973.12
2016-12-11T02:43:05.985Z,973.13
2016-12-11T02:44:14.679Z,973.07
2016-12-11T02:45:23.419Z,973.1
2016-12-11T02:46:32.104Z,973.09
2016-12-11T02:47:40.791Z,973.09
2016-12-11T02:48:49.483Z,973.11
2016-12-11T02:49:58.173Z,973.14
2016-12-11T02:51:07.230Z,973.11
2016-12-11T02:52:15.922Z,973.08
2016-12-11T02:53:24.611Z,973.09
2016-12-11T02:54:33.301Z,973.06
2016-12-11T02:55:41.988Z,973.06
2016-12-11T02:56:50.730Z,973.07
2016-12-11T02:57:59.427Z,973.08
2016-12-11T02:59:08.116Z,973.07
2016-12-11T03:00:16.807Z,973.08
2016-12-11T03:01:25.499Z,973.11
2016-12-11T03:04:06.360Z,973.08
2016-12-11T03:05:15.051Z,973.03
2016-12-11T03:06:23.741Z,973.07
2016-12-11T03:07:32.435Z,973.02
2016-12-11T03:08:41.485Z,973.02
2016-12-11T03:09:50.180Z,973
2016-12-11T03:10:58.869Z,973
2016-12-11T03:12:07.560Z,973.01
2016-12-11T03:13:16.278Z,972.96
2016-12-11T03:14:24.970Z,972.98
2016-12-11T03:15:33.660Z,972.99
2016-12-11T03:16:42.343Z,972.95
2016-12-11T03:17:51.034Z,972.95
2016-12-11T03:18:59.726Z,972.94
2016-12-11T03:20:08.460Z,972.93
2016-12-11T03:21:17.160Z,972.93
2016-12-11T03:22:25.852Z,972.9
2016-12-11T03:23:34.538Z,972.9
2016-12-11T03:24:43.264Z,972.84
2016-12-11T03:25:51.947Z,972.84
2016-12-11T03:27:00.633Z,972.85
2016-12-11T03:28:09.321Z,972.83
2016-12-11T03:29:18.013Z,972.81
2016-12-11T03:30:26.732Z,972.76
2016-12-11T03:31:35.419Z,972.72
2016-12-11T03:32:44.108Z,972.69
2016-12-11T03:33:52.801Z,972.66
2016-12-11T03:35:01.813Z,972.62
2016-12-11T03:36:10.505Z,972.59
2016-12-11T03:37:19.200Z,972.58
2016-12-11T03:38:27.890Z,972.52
2016-12-11T03:39:36.574Z,972.5
2016-12-11T03:40:45.263Z,972.51
2016-12-11T03:41:53.953Z,972.47
2016-12-11T03:43:02.645Z,972.48
2016-12-11T03:44:11.328Z,972.45
2016-12-11T03:45:20.012Z,972.44
2016-12-11T03:46:28.697Z,972.38
2016-12-11T03:47:37.388Z,972.37
2016-12-11T03:48:46.078Z,972.38
2016-12-11T03:49:54.767Z,972.36
2016-12-11T03:51:03.458Z,972.35
2016-12-11T03:52:12.463Z,972.32
2016-12-11T03:53:21.151Z,972.27
2016-12-11T03:54:29.837Z,972.26
2016-12-11T03:55:38.528Z,972.26
2016-12-11T03:56:47.210Z,972.22
2016-12-11T03:57:55.897Z,972.25
2016-12-11T03:59:04.587Z,972.3
2016-12-11T04:00:13.276Z,972.3
2016-12-11T04:01:22.274Z,972.29
2016-12-11T04:02:30.963Z,972.32
2016-12-11T04:03:39.971Z,972.29
2016-12-11T04:04:48.655Z,972.29
2016-12-11T04:05:57.339Z,972.28
2016-12-11T04:07:06.025Z,972.26
2016-12-11T04:08:14.715Z,972.25
2016-12-11T04:09:23.403Z,972.21
2016-12-11T04:10:32.088Z,972.16
2016-12-11T04:11:40.778Z,972.17
2016-12-11T04:12:49.506Z,972.17
2016-12-11T04:13:58.192Z,972.18
2016-12-11T04:15:06.881Z,972.18
2016-12-11T04:16:15.578Z,972.23
2016-12-11T04:17:24.265Z,972.3
2016-12-11T04:18:32.952Z,972.29
2016-12-11T04:19:41.639Z,972.31
2016-12-11T04:20:50.335Z,972.29
2016-12-11T04:21:59.024Z,972.23
2016-12-11T04:23:07.714Z,972.22
2016-12-11T04:24:16.401Z,972.22
2016-12-11T04:25:25.093Z,972.22
2016-12-11T04:26:34.098Z,972.17
2016-12-11T04:27:42.785Z,972.2
2016-12-11T04:28:51.479Z,972.24
2016-12-11T04:30:00.171Z,972.18
2016-12-11T04:31:08.862Z,972.25
2016-12-11T04:32:17.552Z,972.21
2016-12-11T04:33:26.315Z,972.26
2016-12-11T04:34:35.002Z,972.22
2016-12-11T04:35:44.001Z,972.23
2016-12-11T04:36:52.693Z,972.24
2016-12-11T04:38:01.380Z,972.23
2016-12-11T04:39:10.073Z,972.21
2016-12-11T04:40:18.758Z,972.19
2016-12-11T04:41:27.445Z,972.2
2016-12-11T04:42:36.131Z,972.19
2016-12-11T04:43:44.819Z,972.23
2016-12-11T04:44:53.506Z,972.18
2016-12-11T04:46:02.193Z,972.19
2016-12-11T04:47:10.882Z,972.17
2016-12-11T04:48:19.573Z,972.14
2016-12-11T04:49:28.262Z,972.16
2016-12-11T04:50:36.955Z,972.15
2016-12-11T04:51:45.644Z,972.19
2016-12-11T04:52:54.335Z,972.18
2016-12-11T04:54:03.021Z,972.24
2016-12-11T04:55:11.704Z,972.24
2016-12-11T04:56:20.417Z,972.2
2016-12-11T04:57:29.104Z,972.23
2016-12-11T04:58:37.791Z,972.22
2016-12-11T04:59:46.477Z,972.17
2016-12-11T05:00:55.163Z,972.14
2016-12-11T05:02:03.852Z,972.12
2016-12-11T05:03:12.538Z,972.14
2016-12-11T05:04:21.228Z,972.1
2016-12-11T05:05:29.922Z,972.08
2016-12-11T05:06:38.610Z,972.01
2016-12-11T05:07:47.311Z,972
2016-12-11T05:08:56.005Z,971.96
2016-12-11T05:10:04.693Z,971.97
2016-12-11T05:11:13.696Z,972.02
2016-12-11T05:12:22.408Z,972.01
2016-12-11T05:13:31.096Z,972.04
2016-12-11T05:14:39.781Z,972.07
2016-12-11T05:15:48.470Z,972.08
2016-12-11T05:16:57.157Z,972.08
2016-12-11T05:18:05.850Z,972.07
2016-12-11T05:19:14.567Z,972.06
2016-12-11T05:20:23.259Z,972.08
2016-12-11T05:21:31.946Z,972.11
2016-12-11T05:22:40.634Z,972.11
2016-12-11T05:23:49.322Z,972.16
2016-12-11T05:24:58.012Z,972.1
2016-12-11T05:26:06.700Z,972.12
2016-12-11T05:27:15.385Z,972.11
2016-12-11T05:28:24.080Z,972.13
2016-12-11T05:29:32.794Z,972.1
2016-12-11T05:30:41.487Z,972.09
2016-12-11T05:31:50.177Z,972.02
2016-12-11T05:32:58.865Z,972.07
2016-12-11T05:34:07.556Z,972.07
2016-12-11T05:35:16.255Z,972.07
2016-12-11T05:36:24.952Z,972.06
2016-12-11T05:37:33.637Z,972.09
2016-12-11T05:38:42.327Z,972.07
2016-12-11T05:39:51.012Z,972.12
2016-12-11T05:40:59.708Z,972.09
2016-12-11T05:42:08.401Z,972.05
2016-12-11T05:43:17.090Z,972.09
2016-12-11T05:44:25.778Z,972.08
2016-12-11T05:45:34.465Z,972.08
2016-12-11T05:46:43.152Z,972.05
2016-12-11T05:47:51.839Z,972.12
2016-12-11T05:49:00.527Z,972.21
2016-12-11T05:50:09.214Z,972.21
2016-12-11T05:51:17.900Z,972.19
2016-12-11T05:52:26.582Z,972.17
2016-12-11T05:53:35.274Z,972.15
2016-12-11T05:54:43.959Z,972.2
2016-12-11T05:55:52.653Z,972.22
2016-12-11T05:57:01.352Z,972.23
2016-12-11T05:58:10.044Z,972.22
2016-12-11T05:59:18.729Z,972.23
2016-12-11T06:00:27.420Z,972.3
2016-12-11T06:01:36.109Z,972.33
2016-12-11T06:02:44.797Z,972.35
2016-12-11T06:03:53.479Z,972.36
2016-12-11T06:05:02.165Z,972.33
2016-12-11T06:06:11.168Z,972.3
2016-12-11T06:07:19.856Z,972.31
2016-12-11T06:08:28.549Z,972.25
2016-12-11T06:09:37.236Z,972.3
2016-12-11T06:10:45.919Z,972.31
2016-12-11T06:11:54.612Z,972.35
2016-12-11T06:13:03.306Z,972.35
2016-12-11T06:14:12.338Z,972.4
2016-12-11T06:15:21.029Z,972.46
2016-12-11T06:16:29.721Z,972.44
2016-12-11T06:17:38.444Z,972.38
2016-12-11T06:18:47.130Z,972.41
2016-12-11T06:19:55.818Z,972.38
2016-12-11T06:21:04.505Z,972.4
2016-12-11T06:22:13.225Z,972.38
2016-12-11T06:23:21.916Z,972.39
2016-12-11T06:24:30.606Z,972.39
2016-12-11T06:25:39.300Z,972.41
2016-12-11T06:26:47.987Z,972.4
2016-12-11T06:27:56.682Z,972.41
2016-12-11T06:29:05.381Z,972.4
2016-12-11T06:30:14.073Z,972.4
2016-12-11T06:31:22.763Z,972.42
2016-12-11T06:32:31.458Z,972.42
2016-12-11T06:33:40.146Z,972.39
2016-12-11T06:34:48.837Z,972.4
2016-12-11T06:35:57.529Z,972.39
2016-12-11T06:37:06.221Z,972.36
2016-12-11T06:38:14.906Z,972.38
2016-12-11T06:39:23.599Z,972.41
2016-12-11T06:40:32.325Z,972.42
2016-12-11T06:41:41.015Z,972.45
2016-12-11T06:42:49.721Z,972.42
2016-12-11T06:43:58.410Z,972.43
2016-12-11T06:45:07.100Z,972.4
2016-12-11T06:46:15.793Z,972.45
2016-12-11T06:47:24.480Z,972.4
2016-12-11T06:48:33.171Z,972.41
2016-12-11T06:49:41.863Z,972.39
2016-12-11T06:50:50.550Z,972.42
2016-12-11T06:51:59.274Z,972.44
2016-12-11T06:53:07.965Z,972.4
2016-12-11T06:54:16.654Z,972.39
2016-12-11T06:55:25.351Z,972.46
2016-12-11T06:56:34.041Z,972.44
2016-12-11T06:57:42.786Z,972.53
2016-12-11T06:58:51.489Z,972.53
2016-12-11T07:00:00.178Z,972.54
2016-12-11T07:01:08.869Z,972.55
2016-12-11T07:02:17.567Z,972.56
2016-12-11T07:03:26.264Z,972.59
2016-12-11T07:04:34.955Z,972.57
2016-12-11T07:05:43.648Z,972.55
2016-12-11T07:06:52.336Z,972.53
2016-12-11T07:08:01.030Z,972.53
2016-12-11T07:09:09.718Z,972.52
2016-12-11T07:10:18.405Z,972.56
2016-12-11T07:11:27.094Z,972.56
2016-12-11T07:12:35.782Z,972.58
2016-12-11T07:13:44.468Z,972.61
2016-12-11T07:14:53.159Z,972.57
2016-12-11T07:16:01.848Z,972.61
2016-12-11T07:17:10.541Z,972.63
2016-12-11T07:18:19.258Z,972.69
2016-12-11T07:19:27.976Z,972.68
2016-12-11T07:20:36.671Z,972.65
2016-12-11T07:21:45.363Z,972.69
2016-12-11T07:22:54.051Z,972.64
2016-12-11T07:24:02.744Z,972.66
2016-12-11T07:25:11.432Z,972.64
2016-12-11T07:26:20.121Z,972.64
2016-12-11T07:27:28.811Z,972.63
2016-12-11T07:28:37.513Z,972.63
2016-12-11T07:29:46.203Z,972.64
2016-12-11T07:30:54.888Z,972.66
2016-12-11T07:32:03.583Z,972.69
2016-12-11T07:33:12.273Z,972.68
2016-12-11T07:34:20.962Z,972.71
2016-12-11T07:35:29.648Z,972.73
2016-12-11T07:36:38.342Z,972.74
2016-12-11T07:37:47.033Z,972.73
2016-12-11T07:38:55.716Z,972.74
2016-12-11T07:40:04.417Z,972.77
2016-12-11T07:41:13.108Z,972.77
2016-12-11T07:42:21.805Z,972.76
2016-12-11T07:43:30.499Z,972.78
2016-12-11T07:44:39.216Z,972.79
2016-12-11T07:45:47.906Z,972.74
2016-12-11T07:46:56.625Z,972.8
2016-12-11T07:48:05.317Z,972.85
2016-12-11T07:49:14.005Z,972.85
2016-12-11T07:50:22.695Z,972.85
2016-12-11T07:51:31.385Z,972.87
2016-12-11T07:52:40.071Z,972.82
2016-12-11T07:53:48.760Z,972.87
2016-12-11T07:54:57.447Z,972.8
2016-12-11T07:56:06.136Z,972.85
2016-12-11T07:57:14.830Z,972.84
2016-12-11T07:58:23.520Z,972.83
2016-12-11T07:59:32.209Z,972.88
2016-12-11T08:00:40.898Z,972.87
2016-12-11T08:01:49.589Z,972.89
2016-12-11T08:02:58.282Z,972.9
2016-12-11T08:04:06.968Z,972.89
2016-12-11T08:05:15.971Z,972.93
2016-12-11T08:06:24.658Z,972.95
2016-12-11T08:07:33.346Z,972.96
2016-12-11T08:08:42.038Z,972.96
2016-12-11T08:09:50.727Z,972.98
2016-12-11T08:10:59.418Z,972.98
2016-12-11T08:12:08.420Z,973.01
2016-12-11T08:13:17.112Z,973
2016-12-11T08:14:25.809Z,972.97
2016-12-11T08:15:34.502Z,972.99
2016-12-11T08:16:43.193Z,973.05
2016-12-11T08:17:51.882Z,973.06
2016-12-11T08:19:00.574Z,973.12
2016-12-11T08:20:09.271Z,973.08
2016-12-11T08:21:17.963Z,973.15
2016-12-11T08:22:26.651Z,973.11
2016-12-11T08:23:35.343Z,973.15
2016-12-11T08:24:44.032Z,973.17
2016-12-11T08:25:52.720Z,973.18
2016-12-11T08:27:01.411Z,973.22
2016-12-11T08:28:10.133Z,973.24
2016-12-11T08:29:18.823Z,973.25
2016-12-11T08:30:27.536Z,973.26
2016-12-11T08:31:36.226Z,973.29
2016-12-11T08:32:44.911Z,973.32
2016-12-11T08:33:53.604Z,973.31
2016-12-11T08:35:02.296Z,973.34
2016-12-11T08:36:10.986Z,973.4
2016-12-11T08:37:19.684Z,973.42
2016-12-11T08:38:28.373Z,973.39
2016-12-11T08:39:37.058Z,973.4
2016-12-11T08:40:45.753Z,973.44
2016-12-11T08:41:54.439Z,973.42
2016-12-11T08:43:03.129Z,973.46
2016-12-11T08:44:11.822Z,973.46
2016-12-11T08:45:20.517Z,973.48
2016-12-11T08:46:29.205Z,973.49
2016-12-11T08:47:37.891Z,973.51
2016-12-11T08:48:46.609Z,973.55
2016-12-11T08:49:55.297Z,973.53
2016-12-11T08:51:03.988Z,973.54
2016-12-11T08:52:12.677Z,973.53
2016-12-11T08:53:21.367Z,973.61
2016-12-11T08:54:30.059Z,973.6
2016-12-11T08:55:38.751Z,973.62
2016-12-11T08:56:47.438Z,973.66
2016-12-11T08:57:56.130Z,973.66
2016-12-11T08:59:04.818Z,973.71
2016-12-11T09:00:13.505Z,973.71
2016-12-11T09:01:22.202Z,973.73
2016-12-11T09:02:30.891Z,973.7
2016-12-11T09:03:39.578Z,973.69
2016-12-11T09:04:48.268Z,973.71
2016-12-11T09:05:56.955Z,973.7
2016-12-11T09:07:05.644Z,973.73
2016-12-11T09:08:14.332Z,973.76
2016-12-11T09:09:23.029Z,973.75
2016-12-11T09:10:31.717Z,973.78
2016-12-11T09:11:40.404Z,973.79
2016-12-11T09:12:49.095Z,973.78
2016-12-11T09:13:57.788Z,973.82
2016-12-11T09:15:06.481Z,973.9
2016-12-11T09:16:15.176Z,973.91
2016-12-11T09:17:23.867Z,973.98
2016-12-11T09:18:32.556Z,973.97
2016-12-11T09:19:41.243Z,973.98
2016-12-11T09:20:49.939Z,974
2016-12-11T09:21:58.632Z,974.07
2016-12-11T09:23:07.322Z,974.06
2016-12-11T09:24:16.010Z,974.13
2016-12-11T09:25:24.701Z,974.14
2016-12-11T09:26:33.385Z,974.13
2016-12-11T09:27:42.076Z,974.16
2016-12-11T09:28:50.765Z,974.15
2016-12-11T09:29:59.462Z,974.17
2016-12-11T09:31:08.155Z,974.18
2016-12-11T09:32:16.844Z,974.2
2016-12-11T09:33:25.537Z,974.26
2016-12-11T09:34:34.226Z,974.24
2016-12-11T09:35:42.918Z,974.25
2016-12-11T09:36:51.611Z,974.25
2016-12-11T09:38:00.336Z,974.27
2016-12-11T09:39:09.028Z,974.3
2016-12-11T09:40:17.713Z,974.29
2016-12-11T09:41:26.402Z,974.38
2016-12-11T09:42:35.106Z,974.39
2016-12-11T09:43:44.109Z,974.34
2016-12-11T09:44:52.808Z,974.39
2016-12-11T09:46:01.502Z,974.44
2016-12-11T09:47:10.195Z,974.41
2016-12-11T09:48:18.884Z,974.43
2016-12-11T09:49:27.574Z,974.5
2016-12-11T09:50:36.262Z,974.52
2016-12-11T09:51:44.951Z,974.53
2016-12-11T09:52:53.638Z,974.52
2016-12-11T09:54:02.327Z,974.59
2016-12-11T09:55:11.015Z,974.55
2016-12-11T09:56:19.702Z,974.61
2016-12-11T09:57:28.396Z,974.63
2016-12-11T09:58:37.083Z,974.59
2016-12-11T09:59:45.775Z,974.67
2016-12-11T10:00:54.462Z,974.66
2016-12-11T10:02:03.150Z,974.68
2016-12-11T10:03:11.839Z,974.7
2016-12-11T10:04:20.531Z,974.78
2016-12-11T10:05:29.247Z,974.74
2016-12-11T10:06:37.939Z,974.81
2016-12-11T10:07:46.628Z,974.79
2016-12-11T10:08:55.637Z,974.84
2016-12-11T10:10:04.328Z,974.86
2016-12-11T10:11:13.018Z,974.94
2016-12-11T10:12:21.728Z,974.93
2016-12-11T10:13:30.418Z,975
2016-12-11T10:14:39.130Z,975.03
2016-12-11T10:15:47.821Z,974.99
2016-12-11T10:16:56.512Z,975.03
2016-12-11T10:18:05.199Z,975.09
2016-12-11T10:19:13.889Z,975.11
2016-12-11T10:20:22.588Z,975.08
2016-12-11T10:21:31.276Z,975.12
2016-12-11T10:22:39.964Z,975.15
2016-12-11T10:23:48.690Z,975.13
2016-12-11T10:24:57.419Z,975.15
2016-12-11T10:26:06.124Z,975.15
2016-12-11T10:27:14.811Z,975.2
2016-12-11T10:28:23.522Z,975.23
2016-12-11T10:29:32.209Z,975.25
2016-12-11T10:30:40.899Z,975.3
2016-12-11T10:31:49.589Z,975.29
2016-12-11T10:32:58.285Z,975.33
2016-12-11T10:34:06.976Z,975.36
2016-12-11T10:35:15.665Z,975.35
2016-12-11T10:36:24.352Z,975.46
2016-12-11T10:37:33.068Z,975.46
2016-12-11T10:38:41.756Z,975.49
2016-12-11T10:39:50.450Z,975.53
2016-12-11T10:40:59.145Z,975.53
2016-12-11T10:42:07.836Z,975.57
2016-12-11T10:43:16.551Z,975.62
2016-12-11T10:44:25.238Z,975.63
2016-12-11T10:45:33.924Z,975.68
2016-12-11T10:46:42.615Z,975.69
2016-12-11T10:47:51.302Z,975.69
2016-12-11T10:48:59.990Z,975.74
2016-12-11T10:50:08.680Z,975.74
2016-12-11T10:51:17.366Z,975.79
2016-12-11T10:52:26.054Z,975.8
2016-12-11T10:53:35.076Z,975.83
2016-12-11T10:54:43.770Z,975.88
2016-12-11T10:55:52.465Z,975.9
2016-12-11T10:57:01.153Z,975.88
2016-12-11T10:58:09.844Z,975.92
2016-12-11T10:59:18.537Z,975.93
2016-12-11T11:00:27.252Z,975.95
2016-12-11T11:01:35.941Z,976
2016-12-11T11:02:44.630Z,975.99
2016-12-11T11:03:53.319Z,976.02
2016-12-11T11:05:02.008Z,975.98
2016-12-11T11:06:10.702Z,976.1
2016-12-11T11:07:19.394Z,976.05
2016-12-11T11:08:28.084Z,976.08
2016-12-11T11:09:36.778Z,976.17
2016-12-11T11:10:45.466Z,976.22
2016-12-11T11:11:54.173Z,976.23
2016-12-11T11:13:02.888Z,976.22
2016-12-11T11:14:11.578Z,976.24
2016-12-11T11:15:20.269Z,976.23
2016-12-11T11:16:28.957Z,976.25
2016-12-11T11:17:37.647Z,976.29
2016-12-11T11:18:46.339Z,976.27
2016-12-11T11:19:55.025Z,976.28
2016-12-11T11:21:03.713Z,976.24
2016-12-11T11:22:12.402Z,976.28
2016-12-11T11:23:21.088Z,976.31
2016-12-11T11:24:29.779Z,976.38
2016-12-11T11:25:38.464Z,976.42
2016-12-11T11:26:47.177Z,976.42
2016-12-11T11:27:55.865Z,976.42
2016-12-11T11:29:04.557Z,976.51
2016-12-11T11:30:13.243Z,976.59
2016-12-11T11:31:21.928Z,976.57
2016-12-11T11:32:30.619Z,976.63
2016-12-11T11:33:39.619Z,976.64
2016-12-11T11:34:48.304Z,976.67
2016-12-11T11:35:56.992Z,976.77
2016-12-11T11:37:05.677Z,976.77
2016-12-11T11:38:14.366Z,976.81
2016-12-11T11:39:23.052Z,976.88
2016-12-11T11:40:31.742Z,976.86
2016-12-11T11:41:40.430Z,976.89
2016-12-11T11:42:49.117Z,976.88
2016-12-11T11:43:57.801Z,976.91
2016-12-11T11:45:06.490Z,976.93
2016-12-11T11:46:15.181Z,976.95
2016-12-11T11:47:23.871Z,976.96
2016-12-11T11:48:32.559Z,977.02
2016-12-11T11:49:41.572Z,977.04
2016-12-11T11:50:50.255Z,977.09
2016-12-11T11:51:58.949Z,977.11
2016-12-11T11:53:07.950Z,977.13
2016-12-11T11:54:16.636Z,977.2
2016-12-11T11:55:25.377Z,977.22
2016-12-11T11:56:34.064Z,977.23
2016-12-11T11:57:43.069Z,977.19
2016-12-11T11:58:51.763Z,977.25
2016-12-11T12:00:00.453Z,977.27
2016-12-11T12:01:09.143Z,977.25
2016-12-11T12:02:17.832Z,977.29
2016-12-11T12:03:26.516Z,977.28
2016-12-11T12:04:35.210Z,977.33
2016-12-11T12:05:43.895Z,977.34
2016-12-11T12:06:52.585Z,977.38
2016-12-11T12:08:01.275Z,977.35
2016-12-11T12:09:09.963Z,977.4
2016-12-11T12:10:18.681Z,977.44
2016-12-11T12:11:27.374Z,977.4
2016-12-11T12:12:36.066Z,977.46
2016-12-11T12:13:44.752Z,977.43
2016-12-11T12:14:53.447Z,977.45
2016-12-11T12:16:02.134Z,977.5
2016-12-11T12:17:10.823Z,977.49
2016-12-11T12:18:19.510Z,977.53
2016-12-11T12:19:28.197Z,977.54
2016-12-11T12:20:36.891Z,977.52
2016-12-11T12:21:45.578Z,977.57
2016-12-11T12:22:54.267Z,977.64
2016-12-11T12:24:02.983Z,977.63
2016-12-11T12:25:11.686Z,977.63
2016-12-11T12:26:20.376Z,977.69
2016-12-11T12:27:29.062Z,977.72
2016-12-11T12:28:37.754Z,977.71
2016-12-11T12:29:46.444Z,977.75
2016-12-11T12:30:55.134Z,977.77
2016-12-11T12:32:03.829Z,977.82
2016-12-11T12:33:12.516Z,977.84
2016-12-11T12:34:21.216Z,977.87
2016-12-11T12:35:29.903Z,977.86
2016-12-11T12:36:38.588Z,977.87
2016-12-11T12:37:47.280Z,977.88
2016-12-11T12:38:55.982Z,977.96
2016-12-11T12:40:04.678Z,977.98
2016-12-11T12:41:13.399Z,977.99
2016-12-11T12:42:22.084Z,978.04
2016-12-11T12:43:30.773Z,978.04
2016-12-11T12:44:39.460Z,978.1
2016-12-11T12:45:48.147Z,978.07
2016-12-11T12:46:56.840Z,978.07
2016-12-11T12:48:05.527Z,978.11
2016-12-11T12:49:14.224Z,978.15
2016-12-11T12:50:22.914Z,978.12
2016-12-11T12:51:31.630Z,978.15
2016-12-11T12:52:40.639Z,978.16
2016-12-11T12:53:49.353Z,978.16
2016-12-11T12:54:58.041Z,978.23
2016-12-11T12:56:06.730Z,978.23
2016-12-11T12:57:15.416Z,978.27
2016-12-11T12:58:24.101Z,978.27
2016-12-11T12:59:32.815Z,978.31
2016-12-11T13:00:41.503Z,978.37
2016-12-11T13:01:50.193Z,978.37
2016-12-11T13:02:58.882Z,978.47
2016-12-11T13:04:07.595Z,978.47
2016-12-11T13:05:16.307Z,978.44
2016-12-11T13:06:24.996Z,978.5
2016-12-11T13:07:33.679Z,978.56
2016-12-11T13:08:42.363Z,978.54
2016-12-11T13:09:51.049Z,978.56
2016-12-11T13:10:59.736Z,978.54
2016-12-11T13:12:08.430Z,978.6
2016-12-11T13:13:17.116Z,978.59
2016-12-11T13:14:25.804Z,978.59
2016-12-11T13:15:34.490Z,978.66
2016-12-11T13:16:43.177Z,978.67
2016-12-11T13:17:52.231Z,978.67
2016-12-11T13:19:00.919Z,978.7
2016-12-11T13:20:09.608Z,978.69
2016-12-11T13:21:18.300Z,978.73
2016-12-11T13:22:26.985Z,978.75
2016-12-11T13:23:35.668Z,978.78
2016-12-11T13:24:44.357Z,978.78
2016-12-11T13:25:53.045Z,978.86
2016-12-11T13:27:01.737Z,978.88
2016-12-11T13:28:10.427Z,978.91
2016-12-11T13:29:19.111Z,978.94
2016-12-11T13:30:27.793Z,978.96
2016-12-11T13:31:36.476Z,978.92
2016-12-11T13:32:45.184Z,978.96
2016-12-11T13:33:53.882Z,978.93
2016-12-11T13:35:02.574Z,978.94
2016-12-11T13:36:11.270Z,978.96
2016-12-11T13:37:19.952Z,978.96
2016-12-11T13:38:28.644Z,978.92
2016-12-11T13:39:37.333Z,978.95
2016-12-11T13:40:46.020Z,978.94
2016-12-11T13:41:54.705Z,978.97
2016-12-11T13:43:03.707Z,978.99
2016-12-11T13:44:12.399Z,979.01
2016-12-11T13:45:21.095Z,979.03
2016-12-11T13:46:29.786Z,979.05
2016-12-11T13:47:38.473Z,979.05
2016-12-11T13:48:47.160Z,979.06
2016-12-11T13:49:55.842Z,979.05
2016-12-11T13:51:04.530Z,979.1
2016-12-11T13:52:13.218Z,979.09
2016-12-11T13:53:21.901Z,979.11
2016-12-11T13:54:30.588Z,979.14
2016-12-11T13:55:39.274Z,979.19
2016-12-11T13:56:47.967Z,979.2
2016-12-11T13:57:56.649Z,979.24
2016-12-11T13:59:05.339Z,979.29
2016-12-11T14:00:14.025Z,979.32
2016-12-11T14:01:22.719Z,979.33
2016-12-11T14:02:31.417Z,979.43
2016-12-11T14:03:40.106Z,979.44
2016-12-11T14:04:48.791Z,979.47
2016-12-11T14:05:57.476Z,979.49
2016-12-11T14:07:06.170Z,979.49
2016-12-11T14:08:14.864Z,979.5
2016-12-11T14:09:23.551Z,979.51
2016-12-11T14:10:32.238Z,979.51
2016-12-11T14:11:40.928Z,979.55
2016-12-11T14:12:49.619Z,979.62
2016-12-11T14:13:58.314Z,979.63
2016-12-11T14:15:07.007Z,979.66
2016-12-11T14:16:15.693Z,979.72
2016-12-11T14:17:24.379Z,979.73
2016-12-11T14:18:33.071Z,979.81
2016-12-11T14:19:41.767Z,979.8
2016-12-11T14:20:50.453Z,979.84
2016-12-11T14:21:59.171Z,979.83
2016-12-11T14:23:07.860Z,979.84